Time;durP1;ratioP1;P1;durP2;ratioP2;P2;SDS_P1;SDS_P2;PMS_P1;PMS_P2;Temp;Humidity;BMP_temperature;BMP_pressure;BME280_temperature;BME280_humidity;BME280_pressure;Samples;Min_cycle;Max_cycle;Signal;HPM_P1;HPM_P2
2022/02/06 00:01:20;;;;;;;29.48;18.62;;;21.00;82.60;;;;;;1872814;74;21209;-82
2022/02/06 00:03:57;;;;;;;31.70;17.60;;;21.00;82.70;;;;;;1880441;74;21245;-82
2022/02/06 00:06:23;;;;;;;20.80;15.40;;;21.00;82.70;;;;;;1879589;74;21135;-83
2022/02/06 00:08:54;;;;;;;18.35;13.93;;;21.00;82.80;;;;;;1887932;74;21618;-83
2022/02/06 00:11:25;;;;;;;19.90;14.43;;;21.00;82.90;;;;;;1852867;76;21150;-82
2022/02/06 00:13:56;;;;;;;27.85;17.85;;;21.00;83.00;;;;;;1899094;75;21136;-82
2022/02/06 00:16:28;;;;;;;20.77;14.20;;;21.00;83.00;;;;;;1884223;75;21536;-82
2022/02/06 00:18:59;;;;;;;18.92;13.35;;;21.10;82.70;;;;;;1872144;74;21167;-82
2022/02/06 00:21:32;;;;;;;20.17;13.35;;;21.00;82.70;;;;;;1913301;74;21210;-82
2022/02/06 00:24:04;;;;;;;19.00;13.88;;;21.00;82.90;;;;;;1871834;74;21212;-81
2022/02/06 00:26:40;;;;;;;19.67;13.70;;;21.00;83.00;;;;;;1891850;74;21138;-82
2022/02/06 00:39:14;;;;;;;23.30;16.77;;;21.00;83.10;;;;;;1880324;74;21147;-82
2022/02/06 00:41:45;;;;;;;23.45;15.20;;;21.00;83.30;;;;;;1862335;75;21186;-81
2022/02/06 00:44:15;;;;;;;21.30;16.15;;;21.00;83.20;;;;;;1879578;74;21096;-83
2022/02/06 00:46:46;;;;;;;23.10;17.07;;;21.00;83.20;;;;;;1880408;74;21147;-81
2022/02/06 00:49:25;;;;;;;24.10;17.27;;;21.00;83.20;;;;;;1884527;74;21189;-82
2022/02/06 00:54:19;;;;;;;20.95;14.53;;;21.00;83.40;;;;;;1877049;74;21836;-81
2022/02/06 00:56:50;;;;;;;21.02;15.25;;;21.00;83.20;;;;;;1884966;74;21178;-81
2022/02/06 00:59:21;;;;;;;20.68;14.50;;;21.00;82.80;;;;;;1866802;75;21164;-82
2022/02/06 01:01:52;;;;;;;20.32;14.87;;;21.00;82.80;;;;;;1880346;74;21650;-86
2022/02/06 01:04:22;;;;;;;18.85;14.70;;;21.00;82.70;;;;;;1888907;74;21163;-82
2022/02/06 01:06:53;;;;;;;21.90;15.53;;;21.00;82.70;;;;;;1878275;75;21120;-83
2022/02/06 01:09:23;;;;;;;27.98;15.03;;;21.10;82.80;;;;;;1880025;74;21092;-82
2022/02/06 01:11:55;;;;;;;21.68;14.45;;;21.10;82.40;;;;;;1886520;74;21876;-83
2022/02/06 01:19:47;;;;;;;21.80;14.07;;;21.30;82.20;;;;;;1870890;74;21587;-83
2022/02/06 01:22:09;;;;;;;20.55;15.45;;;21.30;82.30;;;;;;1876815;75;21107;-82
2022/02/06 01:24:43;;;;;;;26.00;16.20;;;21.30;81.80;;;;;;1885971;74;21213;-82
2022/02/06 01:27:17;;;;;;;21.73;14.95;;;21.40;81.30;;;;;;1881204;75;21135;-82
2022/02/06 01:30:12;;;;;;;22.70;16.20;;;21.40;81.10;;;;;;1877937;75;21084;-83
2022/02/06 01:32:23;;;;;;;24.30;15.95;;;21.40;81.20;;;;;;1876863;74;21060;-83
2022/02/06 01:34:57;;;;;;;21.33;16.02;;;21.40;81.10;;;;;;1876436;74;21131;-83
2022/02/06 01:41:42;;;;;;;23.38;14.75;;;21.40;81.10;;;;;;1878066;74;21115;-82
2022/02/06 01:43:19;;;;;;;22.77;15.60;;;21.40;81.00;;;;;;1847826;74;21151;-83
2022/02/06 02:01:31;;;;;;;18.55;13.70;;;21.70;79.50;;;;;;1869218;74;21257;-84
2022/02/06 02:03:51;;;;;;;18.85;13.83;;;21.80;79.40;;;;;;1865523;74;21210;-81
2022/02/06 02:06:54;;;;;;;18.15;12.58;;;21.90;79.20;;;;;;1877439;75;21159;-83
2022/02/06 02:14:12;;;;;;;17.90;12.45;;;22.10;78.80;;;;;;1881685;75;22116;-84
2022/02/06 02:26:47;;;;;;;16.70;11.30;;;22.40;78.40;;;;;;1839144;75;22077;-83
2022/02/06 02:47:11;;;;;;;12.78;8.83;;;22.70;76.30;;;;;;1874000;74;21080;-83
2022/02/06 02:49:30;;;;;;;9.98;8.58;;;22.70;76.60;;;;;;1876138;75;21175;-82
2022/02/06 02:52:05;;;;;;;12.88;9.23;;;22.70;76.40;;;;;;1875189;75;21065;-82
2022/02/06 02:54:36;;;;;;;10.90;8.55;;;22.80;76.30;;;;;;1877000;74;21567;-83
2022/02/06 02:57:16;;;;;;;13.95;9.53;;;22.70;76.90;;;;;;1846029;75;21228;-83
2022/02/06 03:02:11;;;;;;;13.30;9.93;;;22.80;76.40;;;;;;1870074;74;21171;-83
2022/02/06 03:04:47;;;;;;;13.08;9.18;;;22.80;76.60;;;;;;1800014;78;21156;-83
2022/02/06 03:07:14;;;;;;;22.05;10.10;;;22.90;76.30;;;;;;1877031;74;21107;-83
2022/02/06 03:09:46;;;;;;;15.25;10.18;;;22.90;76.50;;;;;;1877301;74;21264;-82
2022/02/06 03:12:29;;;;;;;14.75;9.93;;;22.90;76.40;;;;;;1877901;74;21174;-83
2022/02/06 03:15:02;;;;;;;16.00;10.48;;;22.90;76.30;;;;;;1849848;75;21069;-83
2022/02/06 03:17:37;;;;;;;12.88;10.18;;;22.90;76.70;;;;;;1855326;75;21630;-83
2022/02/06 03:20:09;;;;;;;15.20;10.82;;;23.00;76.70;;;;;;1878500;74;21245;-82
2022/02/06 03:22:49;;;;;;;14.47;11.05;;;23.00;76.80;;;;;;1851007;75;21239;-83
2022/02/06 03:25:16;;;;;;;14.95;10.28;;;23.10;76.50;;;;;;1875033;74;21225;-82
2022/02/06 03:27:44;;;;;;;14.90;11.50;;;23.10;76.30;;;;;;1878895;74;21218;-83
2022/02/06 03:30:15;;;;;;;21.35;12.53;;;23.20;76.20;;;;;;1880652;75;21092;-83
2022/02/06 03:32:53;;;;;;;19.07;12.07;;;23.20;76.10;;;;;;1879873;74;21111;-82
2022/02/06 03:35:26;;;;;;;15.93;11.03;;;23.30;76.20;;;;;;1881400;74;21174;-82
2022/02/06 03:37:53;;;;;;;16.23;11.50;;;23.30;75.90;;;;;;1878970;74;21222;-81
2022/02/06 03:40:27;;;;;;;17.95;11.20;;;23.40;76.10;;;;;;1879686;74;21147;-83
2022/02/06 03:45:37;;;;;;;15.98;11.30;;;23.50;75.50;;;;;;1889712;72;21173;-83
2022/02/06 03:48:11;;;;;;;18.30;11.25;;;23.50;75.70;;;;;;1879364;74;21205;-82
2022/02/06 03:50:34;;;;;;;15.58;10.75;;;23.70;75.40;;;;;;1885300;72;21012;-83
2022/02/06 03:53:05;;;;;;;14.75;11.45;;;23.70;75.00;;;;;;1881855;74;21124;-84
2022/02/06 03:55:36;;;;;;;13.83;11.03;;;23.80;75.20;;;;;;1881983;74;21526;-84
2022/02/06 03:58:06;;;;;;;15.80;11.15;;;23.90;74.90;;;;;;1884770;73;21161;-83
2022/02/06 04:00:37;;;;;;;19.15;12.65;;;23.90;74.10;;;;;;1880091;74;21307;-82
2022/02/06 04:03:08;;;;;;;18.27;11.03;;;24.00;74.20;;;;;;1807431;77;21218;-81
2022/02/06 04:05:44;;;;;;;17.30;11.78;;;24.10;73.80;;;;;;1881311;74;21068;-81
2022/02/06 04:08:14;;;;;;;16.02;11.48;;;24.20;73.60;;;;;;1877935;74;21131;-82
2022/02/06 04:10:47;;;;;;;14.98;11.65;;;24.30;73.80;;;;;;1880734;74;21236;-79
2022/02/06 04:13:18;;;;;;;16.25;11.53;;;24.40;73.50;;;;;;1888938;74;21661;-81
2022/02/06 04:15:54;;;;;;;18.67;12.30;;;24.50;73.10;;;;;;1878776;74;21096;-80
2022/02/06 04:20:52;;;;;;;15.65;10.95;;;24.70;72.80;;;;;;1874778;74;21674;-81
2022/02/06 04:23:23;;;;;;;13.72;10.53;;;24.70;72.30;;;;;;1877602;74;21147;-82
2022/02/06 04:25:54;;;;;;;15.30;10.80;;;24.80;72.10;;;;;;1875933;74;21237;-82
2022/02/06 04:28:25;;;;;;;14.23;10.70;;;24.90;72.00;;;;;;1876102;74;21579;-82
2022/02/06 04:30:56;;;;;;;13.88;10.68;;;24.90;71.60;;;;;;1884831;74;21177;-82
2022/02/06 04:33:27;;;;;;;15.03;10.65;;;25.00;71.00;;;;;;1881094;75;21119;-81
2022/02/06 04:36:02;;;;;;;16.65;10.95;;;25.10;70.50;;;;;;1879359;74;21150;-81
2022/02/06 04:49:21;;;;;;;14.47;10.13;;;25.40;70.60;;;;;;1886973;75;21619;-82
2022/02/06 05:19:43;;;;;;;14.33;10.32;;;26.30;68.20;;;;;;1897096;75;21167;-81
2022/02/06 05:29:37;;;;;;;11.85;9.58;;;26.60;66.60;;;;;;1869597;74;21162;-82
2022/02/06 05:34:23;;;;;;;14.68;9.43;;;26.80;66.70;;;;;;1891092;75;21575;-82
2022/02/06 05:36:53;;;;;;;12.28;9.88;;;26.90;67.30;;;;;;1906474;74;21994;-82
2022/02/06 05:39:24;;;;;;;12.98;9.43;;;26.90;66.90;;;;;;1896681;74;21232;-81
2022/02/06 05:41:55;;;;;;;11.73;9.03;;;26.90;64.00;;;;;;1875682;74;21066;-82
2022/02/06 05:44:25;;;;;;;11.65;9.43;;;26.90;64.30;;;;;;1891983;75;21756;-82
2022/02/06 05:46:56;;;;;;;11.75;9.45;;;26.80;64.90;;;;;;1885045;75;21171;-82
2022/02/06 05:49:27;;;;;;;11.93;8.68;;;26.80;64.80;;;;;;1875506;74;21193;-83
2022/02/06 05:52:01;;;;;;;13.90;9.23;;;26.80;66.00;;;;;;1871448;74;21599;-81
2022/02/06 05:54:31;;;;;;;11.57;9.50;;;26.80;65.10;;;;;;1847129;76;21717;-81
2022/02/06 05:57:02;;;;;;;14.53;10.00;;;26.90;66.00;;;;;;1886040;74;21217;-83
2022/02/06 05:59:33;;;;;;;12.55;8.85;;;27.00;65.30;;;;;;1880622;75;21378;-82
2022/02/06 06:02:04;;;;;;;13.18;9.53;;;27.00;65.20;;;;;;1880829;75;21056;-82
2022/02/06 06:04:35;;;;;;;12.10;9.35;;;27.10;65.10;;;;;;1891258;75;21163;-82
2022/02/06 06:07:06;;;;;;;13.70;9.43;;;27.10;66.10;;;;;;1882081;75;21134;-82
2022/02/06 06:09:37;;;;;;;12.20;8.80;;;27.30;65.80;;;;;;1885148;75;21147;-83
2022/02/06 06:12:08;;;;;;;12.28;9.60;;;27.40;65.90;;;;;;1904406;75;21158;-81
2022/02/06 06:14:40;;;;;;;11.85;9.68;;;27.40;64.60;;;;;;1893719;75;21213;-83
2022/02/06 06:17:11;;;;;;;11.60;8.50;;;27.50;64.90;;;;;;1886416;75;21232;-80
2022/02/06 06:19:46;;;;;;;15.68;9.10;;;27.60;64.00;;;;;;1879259;76;21057;-81
2022/02/06 06:22:14;;;;;;;12.50;8.85;;;27.60;64.80;;;;;;1881457;76;21151;-82
2022/02/06 06:24:51;;;;;;;12.10;9.60;;;27.70;64.70;;;;;;1883239;76;21156;-82
2022/02/06 06:27:17;;;;;;;12.10;8.88;;;27.70;63.60;;;;;;1878781;76;21728;-81
2022/02/06 06:29:48;;;;;;;11.50;8.25;;;27.80;64.60;;;;;;1883904;75;21080;-82
2022/02/06 06:32:19;;;;;;;11.68;8.23;;;27.80;64.00;;;;;;1882508;76;21165;-82
2022/02/06 06:34:51;;;;;;;13.08;8.85;;;27.80;64.60;;;;;;1879359;76;21131;-82
2022/02/06 06:37:22;;;;;;;13.15;8.63;;;27.80;64.40;;;;;;1882012;75;21634;-81
2022/02/06 06:39:52;;;;;;;11.20;9.03;;;27.80;63.70;;;;;;1878230;76;21174;-82
2022/02/06 06:42:23;;;;;;;14.60;9.43;;;27.70;63.90;;;;;;1877859;75;21130;-81
2022/02/06 06:44:54;;;;;;;11.97;9.15;;;27.70;64.00;;;;;;1859079;77;21176;-82
2022/02/06 06:47:24;;;;;;;12.10;9.05;;;27.70;63.90;;;;;;1882873;75;21128;-82
2022/02/06 06:49:56;;;;;;;14.85;9.23;;;27.80;64.10;;;;;;1879810;76;21575;-82
2022/02/06 06:52:28;;;;;;;10.93;8.43;;;27.80;63.90;;;;;;1882719;75;21080;-82
2022/02/06 06:55:02;;;;;;;13.95;8.75;;;27.90;64.60;;;;;;1882643;76;21151;-82
2022/02/06 06:57:40;;;;;;;11.45;8.88;;;28.00;64.10;;;;;;1882671;76;21163;-82
2022/02/06 07:02:36;;;;;;;12.25;8.43;;;28.00;63.60;;;;;;1854280;77;21570;-82
2022/02/06 07:05:07;;;;;;;11.93;8.65;;;28.00;63.60;;;;;;1898600;75;21095;-82
2022/02/06 07:07:38;;;;;;;12.23;8.23;;;28.00;63.90;;;;;;1886563;75;21959;-83
2022/02/06 07:10:09;;;;;;;11.43;9.05;;;28.00;63.70;;;;;;1905433;75;21689;-82
2022/02/06 07:12:40;;;;;;;12.13;8.43;;;28.00;63.70;;;;;;1896396;75;21130;-82
2022/02/06 07:15:11;;;;;;;13.22;8.98;;;28.00;63.20;;;;;;1883442;76;21139;-81
2022/02/06 07:17:42;;;;;;;12.05;8.58;;;28.10;64.30;;;;;;1886433;75;21240;-82
2022/02/06 07:20:13;;;;;;;13.93;8.30;;;28.10;63.90;;;;;;1889238;75;21153;-82
2022/02/06 07:22:49;;;;;;;12.45;8.73;;;28.20;64.00;;;;;;1899504;75;21751;-81
2022/02/06 07:25:20;;;;;;;10.88;8.40;;;28.20;63.00;;;;;;1887797;75;21123;-83
2022/02/06 07:27:51;;;;;;;11.78;8.53;;;28.20;63.10;;;;;;1878207;75;21127;-83
2022/02/06 07:30:25;;;;;;;14.47;9.18;;;28.20;63.60;;;;;;1865709;75;21073;-83
2022/02/06 07:32:59;;;;;;;12.13;8.50;;;28.20;62.90;;;;;;1893258;75;21196;-82
2022/02/06 07:35:29;;;;;;;11.00;8.15;;;28.20;62.70;;;;;;1880578;75;21117;-83
2022/02/06 07:38:02;;;;;;;10.63;7.97;;;28.20;63.40;;;;;;1877450;75;21618;-83
2022/02/06 07:40:32;;;;;;;13.10;9.20;;;28.10;62.40;;;;;;1884051;75;21221;-81
2022/02/06 07:43:03;;;;;;;13.18;9.60;;;28.10;62.70;;;;;;1861154;75;21131;-81
2022/02/06 07:45:36;;;;;;;10.65;7.70;;;28.10;63.00;;;;;;1900869;75;21179;-81
2022/02/06 07:48:08;;;;;;;14.18;8.83;;;28.10;63.20;;;;;;1901379;75;21695;-81
2022/02/06 07:50:38;;;;;;;13.85;8.65;;;28.10;63.20;;;;;;1882540;76;21123;-82
2022/02/06 07:53:09;;;;;;;12.30;8.28;;;28.10;62.90;;;;;;1882403;75;21119;-81
2022/02/06 07:55:40;;;;;;;10.38;7.90;;;28.20;63.20;;;;;;1879648;76;21448;-81
2022/02/06 07:58:10;;;;;;;13.25;8.53;;;28.10;63.20;;;;;;1878393;75;21237;-81
2022/02/06 08:00:41;;;;;;;12.75;8.80;;;28.10;63.10;;;;;;1880897;76;21231;-81
2022/02/06 08:03:11;;;;;;;12.90;8.50;;;28.10;63.30;;;;;;1878084;75;21107;-82
2022/02/06 08:05:42;;;;;;;13.60;8.65;;;28.10;63.80;;;;;;1882962;75;21089;-82
2022/02/06 08:08:14;;;;;;;13.48;7.85;;;28.00;63.20;;;;;;1884676;75;21163;-82
2022/02/06 08:10:45;;;;;;;10.98;8.68;;;28.00;63.30;;;;;;1893137;75;21680;-81
2022/02/06 08:13:26;;;;;;;11.57;7.97;;;28.00;63.60;;;;;;1900831;75;21153;-82
2022/02/06 08:15:47;;;;;;;11.33;8.20;;;27.90;63.20;;;;;;1880589;76;21085;-81
2022/02/06 08:18:18;;;;;;;10.63;7.90;;;27.90;63.30;;;;;;1876305;76;21526;-81
2022/02/06 08:20:49;;;;;;;11.22;7.58;;;27.90;63.50;;;;;;1877842;75;21119;-83
2022/02/06 08:23:21;;;;;;;12.88;7.33;;;27.90;64.40;;;;;;1878707;76;21170;-83
2022/02/06 08:25:52;;;;;;;9.20;7.97;;;27.90;64.30;;;;;;1880693;76;21603;-81
2022/02/06 08:28:23;;;;;;;13.08;8.40;;;27.90;64.00;;;;;;1881942;75;21155;-82
2022/02/06 08:30:53;;;;;;;14.87;8.15;;;27.90;63.70;;;;;;1875774;75;21108;-82
2022/02/06 08:33:24;;;;;;;14.58;8.05;;;27.90;63.70;;;;;;1879089;76;21468;-83
2022/02/06 08:35:54;;;;;;;12.40;9.13;;;28.00;63.90;;;;;;1879501;76;21595;-82
2022/02/06 08:38:25;;;;;;;12.23;8.43;;;28.00;63.50;;;;;;1889105;75;21261;-82
2022/02/06 08:40:56;;;;;;;13.58;8.30;;;28.00;63.70;;;;;;1880596;75;21158;-83
2022/02/06 08:43:27;;;;;;;10.40;7.92;;;28.00;63.50;;;;;;1866198;76;21083;-83
2022/02/06 08:46:02;;;;;;;12.18;7.90;;;28.00;63.70;;;;;;1880321;76;21193;-83
2022/02/06 08:48:31;;;;;;;10.82;8.08;;;28.00;63.30;;;;;;1880647;76;21131;-82
2022/02/06 08:51:03;;;;;;;11.53;8.58;;;28.00;63.90;;;;;;1882244;76;21233;-84
2022/02/06 08:53:34;;;;;;;15.88;10.35;;;28.00;63.80;;;;;;1900094;75;21144;-84
2022/02/06 08:56:05;;;;;;;13.75;8.33;;;27.90;63.70;;;;;;1883214;75;21139;-84
2022/02/06 08:58:36;;;;;;;12.33;8.10;;;27.90;63.80;;;;;;1878900;76;21175;-84
2022/02/06 09:01:07;;;;;;;17.40;11.40;;;27.90;63.70;;;;;;1880136;75;21573;-84
2022/02/06 09:03:37;;;;;;;13.35;8.25;;;27.90;63.90;;;;;;1879659;75;21135;-83
2022/02/06 09:06:10;;;;;;;12.03;8.33;;;27.90;63.90;;;;;;1903466;75;21044;-83
2022/02/06 09:08:40;;;;;;;11.33;7.78;;;27.90;63.70;;;;;;1895089;75;21209;-84
2022/02/06 09:11:11;;;;;;;14.20;8.00;;;27.80;63.80;;;;;;1914897;75;21166;-83
2022/02/06 09:13:41;;;;;;;10.28;7.70;;;27.90;63.90;;;;;;1881306;75;21161;-82
2022/02/06 09:16:12;;;;;;;11.70;7.45;;;27.90;63.70;;;;;;1881408;75;21195;-82
2022/02/06 09:18:43;;;;;;;10.10;7.33;;;27.80;64.20;;;;;;1880080;74;21261;-82
2022/02/06 09:21:16;;;;;;;9.38;6.55;;;27.80;63.90;;;;;;1878988;76;21104;-83
2022/02/06 09:23:46;;;;;;;8.80;6.75;;;27.80;64.30;;;;;;1879656;76;21155;-84
2022/02/06 09:26:17;;;;;;;12.10;8.23;;;27.80;64.30;;;;;;1882603;75;21088;-82
2022/02/06 09:28:48;;;;;;;10.08;7.20;;;27.80;64.10;;;;;;1822720;78;21140;-82
2022/02/06 09:31:24;;;;;;;9.93;7.50;;;27.80;64.20;;;;;;1889730;75;21220;-83
2022/02/06 09:36:30;;;;;;;11.95;7.65;;;27.70;64.40;;;;;;1876881;76;21116;-83
2022/02/06 09:39:01;;;;;;;7.78;5.83;;;27.70;64.30;;;;;;1882030;75;21080;-83
2022/02/06 09:41:32;;;;;;;17.98;8.73;;;27.70;64.00;;;;;;1879886;76;21088;-84
2022/02/06 09:44:06;;;;;;;12.78;7.28;;;27.70;63.90;;;;;;1881315;75;21555;-83
2022/02/06 09:46:40;;;;;;;14.73;7.55;;;27.70;63.90;;;;;;1880208;76;21112;-84
2022/02/06 09:49:11;;;;;;;11.15;6.85;;;27.60;64.00;;;;;;1886079;75;21142;-82
2022/02/06 09:51:47;;;;;;;11.07;6.80;;;27.60;64.10;;;;;;1882426;75;21111;-81
2022/02/06 09:54:22;;;;;;;11.70;6.33;;;27.50;64.40;;;;;;1879805;76;21265;-82
2022/02/06 09:56:58;;;;;;;9.30;6.85;;;27.60;64.70;;;;;;1898738;75;21567;-84
2022/02/06 09:59:27;;;;;;;8.50;6.40;;;27.50;64.40;;;;;;1881513;75;21143;-83
2022/02/06 10:01:59;;;;;;;10.28;6.33;;;27.50;64.50;;;;;;1881936;75;21681;-84
2022/02/06 10:04:33;;;;;;;11.60;6.30;;;27.50;64.90;;;;;;1881148;75;21147;-83
2022/02/06 10:07:07;;;;;;;10.50;6.20;;;27.40;64.40;;;;;;1793607;79;21197;-84
2022/02/06 10:09:38;;;;;;;9.65;6.70;;;27.40;64.80;;;;;;1888439;75;21551;-83
2022/02/06 10:12:10;;;;;;;11.33;6.95;;;27.40;65.00;;;;;;1881200;76;21171;-81
2022/02/06 10:14:41;;;;;;;14.35;7.30;;;27.30;64.90;;;;;;1879455;76;21200;-84
2022/02/06 10:17:12;;;;;;;13.83;9.23;;;27.30;65.00;;;;;;1880111;75;21135;-83
2022/02/06 10:19:45;;;;;;;10.75;6.33;;;27.30;64.90;;;;;;1878128;75;21967;-82
2022/02/06 10:22:18;;;;;;;9.20;5.97;;;27.30;64.60;;;;;;1881614;76;21123;-83
2022/02/06 10:24:51;;;;;;;9.30;5.78;;;27.20;64.60;;;;;;1880461;76;21213;-84
2022/02/06 10:27:24;;;;;;;8.83;5.53;;;27.20;64.60;;;;;;1878224;76;21651;-83
2022/02/06 10:29:57;;;;;;;7.62;5.60;;;27.20;64.80;;;;;;1877175;75;21092;-84
2022/02/06 10:32:28;;;;;;;6.60;4.92;;;27.10;65.10;;;;;;1886559;75;21135;-84
2022/02/06 10:35:01;;;;;;;6.72;4.75;;;27.10;64.10;;;;;;1881559;76;21107;-82
2022/02/06 10:37:32;;;;;;;9.10;5.85;;;27.10;63.90;;;;;;1885097;75;21586;-84
2022/02/06 10:40:06;;;;;;;10.00;5.97;;;27.00;64.10;;;;;;1901799;75;21741;-85
2022/02/06 10:42:41;;;;;;;9.30;6.25;;;27.00;64.80;;;;;;1917740;75;21173;-84
2022/02/06 10:45:14;;;;;;;7.70;6.05;;;27.00;65.30;;;;;;1888282;75;21288;-84
2022/02/06 10:47:47;;;;;;;15.40;6.30;;;26.90;65.60;;;;;;1887209;75;21123;-85
2022/02/06 10:50:20;;;;;;;10.48;6.78;;;27.00;66.00;;;;;;1897749;75;21197;-84
2022/02/06 10:52:51;;;;;;;7.58;6.30;;;26.90;66.30;;;;;;1913253;75;21139;-84
2022/02/06 10:55:22;;;;;;;11.22;6.80;;;26.90;66.70;;;;;;1876464;75;21185;-83
2022/02/06 10:57:55;;;;;;;11.80;7.12;;;26.90;67.10;;;;;;1897250;75;21096;-83
2022/02/06 11:00:28;;;;;;;11.33;7.25;;;26.90;67.20;;;;;;1883594;75;21166;-84
2022/02/06 11:03:09;;;;;;;11.08;8.05;;;26.80;67.50;;;;;;1893199;75;21632;-84
2022/02/06 11:05:40;;;;;;;11.63;7.87;;;26.80;67.90;;;;;;1885834;75;21150;-84
2022/02/06 11:08:08;;;;;;;11.78;7.83;;;26.80;68.10;;;;;;1882669;74;21136;-84
2022/02/06 11:10:39;;;;;;;11.60;8.40;;;26.80;68.30;;;;;;1880560;75;21657;-83
2022/02/06 11:13:11;;;;;;;12.60;8.53;;;26.80;68.40;;;;;;1879799;74;21999;-84
2022/02/06 11:15:46;;;;;;;12.10;8.20;;;26.80;68.80;;;;;;1881616;75;21111;-84
2022/02/06 11:18:23;;;;;;;14.18;8.45;;;26.70;69.00;;;;;;1891364;74;21952;-84
2022/02/06 11:20:52;;;;;;;12.90;8.95;;;26.70;69.20;;;;;;1890575;74;21169;-85
2022/02/06 11:23:23;;;;;;;12.70;8.50;;;26.70;69.60;;;;;;1894691;75;21131;-83
2022/02/06 11:25:55;;;;;;;12.73;8.73;;;26.70;69.60;;;;;;1885451;75;21185;-84
2022/02/06 11:28:26;;;;;;;12.40;8.95;;;26.60;69.80;;;;;;1895655;75;21662;-85
2022/02/06 11:30:56;;;;;;;11.53;8.65;;;26.60;69.90;;;;;;1879967;76;21139;-85
2022/02/06 11:33:28;;;;;;;14.65;9.53;;;26.60;69.90;;;;;;1880698;75;21248;-85
2022/02/06 11:36:06;;;;;;;13.18;9.68;;;26.60;70.10;;;;;;1892016;75;21131;-84
2022/02/06 11:43:52;;;;;;;12.82;9.28;;;26.50;70.90;;;;;;1896733;75;21064;-85
2022/02/06 11:46:16;;;;;;;15.70;8.03;;;26.40;71.00;;;;;;1883862;75;21126;-85
2022/02/06 11:48:47;;;;;;;12.43;7.90;;;26.40;70.70;;;;;;1894992;75;21128;-85
2022/02/06 11:51:19;;;;;;;15.53;9.65;;;26.40;70.70;;;;;;1888873;75;21147;-84
2022/02/06 11:53:50;;;;;;;11.63;8.38;;;26.40;70.50;;;;;;1882558;75;21092;-85
2022/02/06 11:56:22;;;;;;;11.38;8.20;;;26.40;70.50;;;;;;1875228;75;21131;-85
2022/02/06 11:58:53;;;;;;;13.58;8.25;;;26.30;70.10;;;;;;1873312;76;21089;-85
2022/02/06 12:01:26;;;;;;;15.45;10.10;;;26.30;69.80;;;;;;1866135;76;21156;-85
2022/02/06 12:03:59;;;;;;;17.77;11.93;;;26.30;70.50;;;;;;1852073;77;21746;-84
2022/02/06 12:06:32;;;;;;;17.90;12.60;;;26.30;71.20;;;;;;1898557;75;21143;-85
2022/02/06 12:09:02;;;;;;;17.30;11.08;;;26.30;71.50;;;;;;1899023;75;21606;-85
2022/02/06 12:11:36;;;;;;;17.67;9.95;;;26.30;71.50;;;;;;1917328;75;21124;-84
2022/02/06 12:14:09;;;;;;;13.88;9.88;;;26.20;71.60;;;;;;1895954;75;21080;-84
2022/02/06 12:16:56;;;;;;;15.75;10.13;;;26.30;71.80;;;;;;1881416;75;21130;-83
2022/02/06 12:19:17;;;;;;;15.00;10.65;;;26.20;71.90;;;;;;1880387;75;21131;-84
2022/02/06 12:21:48;;;;;;;16.27;9.98;;;26.20;72.00;;;;;;1878832;75;21213;-85
2022/02/06 12:24:21;;;;;;;15.80;10.55;;;26.20;72.00;;;;;;1883704;75;21167;-85
2022/02/06 12:26:52;;;;;;;15.13;10.10;;;26.20;71.90;;;;;;1891573;75;21180;-83
2022/02/06 12:29:25;;;;;;;16.75;9.88;;;26.10;71.70;;;;;;1886413;76;21638;-83
2022/02/06 12:32:00;;;;;;;14.43;9.60;;;26.10;71.80;;;;;;1881547;75;21091;-84
2022/02/06 12:36:53;;;;;;;14.63;10.03;;;26.10;71.80;;;;;;1885903;75;21112;-84
2022/02/06 12:37:09;;;;;;;13.80;9.63;;;26.10;72.10;;;;;;1878579;75;21121;-85
2022/02/06 12:39:40;;;;;;;16.87;10.60;;;26.10;72.10;;;;;;1875925;75;21084;-84
2022/02/06 12:42:17;;;;;;;18.17;10.70;;;26.10;72.30;;;;;;1879969;76;21661;-84
2022/02/06 12:44:48;;;;;;;18.42;10.25;;;26.10;72.60;;;;;;1867763;75;21092;-84
2022/02/06 12:47:19;;;;;;;18.15;10.85;;;26.10;72.70;;;;;;1869754;76;21104;-85
2022/02/06 12:49:52;;;;;;;18.25;11.57;;;26.00;72.80;;;;;;1877705;75;21636;-84
2022/02/06 12:52:23;;;;;;;23.00;13.13;;;26.00;73.00;;;;;;1881236;76;21127;-84
2022/02/06 12:54:56;;;;;;;23.38;12.05;;;26.00;73.20;;;;;;1885000;74;21149;-85
2022/02/06 12:57:28;;;;;;;19.98;11.75;;;26.00;73.40;;;;;;1876303;75;21148;-83
2022/02/06 13:00:00;;;;;;;23.18;11.15;;;26.00;73.50;;;;;;1900884;75;21654;-85
2022/02/06 13:02:35;;;;;;;22.62;13.25;;;25.90;73.60;;;;;;1879552;76;21131;-84
2022/02/06 13:05:08;;;;;;;21.48;13.50;;;25.90;73.80;;;;;;1883018;75;21843;-85
2022/02/06 13:07:39;;;;;;;20.92;13.60;;;25.90;74.10;;;;;;1887986;75;21096;-84
2022/02/06 13:10:11;;;;;;;23.90;14.87;;;25.90;74.20;;;;;;1884872;74;21606;-84
2022/02/06 13:12:48;;;;;;;32.38;18.90;;;25.90;74.30;;;;;;1864408;75;21209;-85
2022/02/06 13:18:11;;;;;;;31.82;19.15;;;25.90;74.30;;;;;;1893081;75;21182;-84
2022/02/06 13:33:19;;;;;;;25.60;15.83;;;25.80;74.40;;;;;;1874504;76;21064;-85
2022/02/06 13:36:00;;;;;;;25.08;15.03;;;25.80;74.60;;;;;;1882357;75;21075;-84
2022/02/06 13:38:22;;;;;;;23.70;14.03;;;25.80;74.40;;;;;;1887802;75;21179;-85
2022/02/06 13:40:54;;;;;;;24.55;15.05;;;25.80;74.70;;;;;;1920562;75;21099;-84
2022/02/06 13:43:30;;;;;;;25.23;15.35;;;25.80;74.80;;;;;;1904686;75;21142;-85
2022/02/06 13:46:53;;;;;;;24.18;15.68;;;25.80;75.30;;;;;;1888787;74;21091;-85
2022/02/06 13:49:31;;;;;;;24.85;14.93;;;25.80;76.20;;;;;;1910763;75;21173;-84
2022/02/06 13:52:00;;;;;;;22.75;13.78;;;25.80;75.50;;;;;;1881846;76;21640;-83
2022/02/06 13:54:32;;;;;;;26.75;14.33;;;25.80;75.60;;;;;;1881179;75;21714;-83
2022/02/06 13:57:06;;;;;;;21.17;14.40;;;25.80;75.40;;;;;;1879055;75;21091;-84
2022/02/06 13:59:38;;;;;;;22.42;14.05;;;25.70;75.40;;;;;;1882487;74;21064;-83
2022/02/06 14:02:11;;;;;;;24.30;15.35;;;25.70;75.40;;;;;;1839883;77;21096;-84
2022/02/06 14:04:48;;;;;;;21.73;14.35;;;25.70;75.70;;;;;;1906954;74;21131;-84
2022/02/06 14:07:20;;;;;;;22.27;13.90;;;25.70;75.80;;;;;;1890970;75;21071;-85
2022/02/06 14:10:07;;;;;;;25.35;15.70;;;25.70;75.70;;;;;;1887210;75;21147;-85
2022/02/06 14:12:25;;;;;;;23.50;14.93;;;25.70;75.50;;;;;;1889520;75;21092;-85
2022/02/06 14:14:56;;;;;;;22.40;14.95;;;25.70;76.00;;;;;;1878724;76;21158;-85
2022/02/06 14:17:31;;;;;;;22.22;15.05;;;25.70;76.00;;;;;;1865140;76;21177;-84
2022/02/06 14:20:05;;;;;;;29.00;16.15;;;25.70;76.20;;;;;;1889940;76;21115;-85
2022/02/06 14:22:38;;;;;;;21.40;14.87;;;25.70;76.30;;;;;;1882912;74;21174;-85
2022/02/06 14:25:15;;;;;;;19.60;14.47;;;25.70;76.40;;;;;;1883977;75;21139;-86
2022/02/06 14:27:44;;;;;;;23.83;15.93;;;25.70;76.40;;;;;;1886862;76;21445;-86
2022/02/06 14:30:17;;;;;;;23.90;14.35;;;25.70;76.60;;;;;;1884450;76;22112;-85
2022/02/06 14:32:51;;;;;;;22.05;15.03;;;25.60;76.70;;;;;;1884516;76;21247;-84
2022/02/06 14:35:24;;;;;;;26.17;15.55;;;25.60;76.80;;;;;;1888974;75;21065;-83
2022/02/06 14:37:58;;;;;;;22.40;15.30;;;25.60;76.90;;;;;;1891742;74;21127;-85
2022/02/06 14:43:35;;;;;;;24.10;15.20;;;25.50;77.30;;;;;;1885321;74;21154;-86
2022/02/06 14:45:36;;;;;;;25.05;14.80;;;25.50;77.40;;;;;;1896461;73;21096;-85
2022/02/06 14:48:07;;;;;;;25.55;16.20;;;25.50;77.30;;;;;;1902678;73;21147;-84
2022/02/06 14:50:38;;;;;;;21.42;15.28;;;25.50;77.40;;;;;;1886653;74;21112;-84
2022/02/06 14:53:09;;;;;;;28.05;16.02;;;25.50;77.60;;;;;;1824652;77;21629;-85
2022/02/06 14:55:42;;;;;;;22.95;15.35;;;25.40;78.00;;;;;;1886859;75;21201;-85
2022/02/06 14:58:13;;;;;;;24.72;16.02;;;25.40;78.30;;;;;;1887076;74;21131;-85
2022/02/06 15:00:44;;;;;;;24.27;15.88;;;25.40;78.50;;;;;;1900477;75;21484;-85
2022/02/06 15:03:17;;;;;;;22.45;15.48;;;25.40;78.90;;;;;;1881213;75;21201;-85
2022/02/06 15:05:49;;;;;;;24.35;15.85;;;25.30;79.10;;;;;;1882329;75;21091;-84
2022/02/06 15:08:20;;;;;;;28.07;16.30;;;25.30;80.10;;;;;;1892011;76;21304;-84
2022/02/06 15:10:52;;;;;;;25.65;16.05;;;25.30;79.30;;;;;;1884681;76;21193;-84
2022/02/06 15:13:22;;;;;;;24.50;15.88;;;25.20;79.80;;;;;;1878097;76;21206;-85
2022/02/06 15:16:01;;;;;;;26.62;16.05;;;25.20;79.90;;;;;;1887698;75;21111;-85
2022/02/06 15:18:36;;;;;;;25.95;17.60;;;25.20;80.20;;;;;;1911380;74;21649;-85
2022/02/06 15:20:57;;;;;;;27.42;16.32;;;25.10;80.00;;;;;;1864124;76;21111;-85
2022/02/06 15:23:28;;;;;;;24.35;14.85;;;25.10;80.30;;;;;;1884619;75;21221;-84
2022/02/06 15:25:59;;;;;;;25.00;16.17;;;25.10;80.30;;;;;;1897419;75;21721;-85
2022/02/06 15:28:29;;;;;;;21.82;16.77;;;25.00;80.30;;;;;;1881949;75;21119;-85
2022/02/06 15:31:00;;;;;;;23.90;16.95;;;25.10;80.40;;;;;;1884661;75;21099;-82